sensor_id;sensor_type;location;lat;lon;timestamp;pressure;altitude;pressure_sealevel;temperature;humidity
250;BME280;109;19.806;-70.704;2024-01-07T00:00:37;101530.09;;;25.54;46.14
250;BME280;109;19.806;-70.704;2024-01-07T00:03:04;101533.47;;;25.57;46.11
250;BME280;109;19.806;-70.704;2024-01-07T00:05:31;101541.09;;;25.50;46.73
250;BME280;109;19.806;-70.704;2024-01-07T00:07:57;101539.16;;;25.53;46.90
250;BME280;109;19.806;-70.704;2024-01-07T00:10:23;101540.56;;;25.45;46.64
250;BME280;109;19.806;-70.704;2024-01-07T00:12:50;101550.50;;;25.45;46.73
250;BME280;109;19.806;-70.704;2024-01-07T00:15:18;101543.56;;;25.41;46.63
250;BME280;109;19.806;-70.704;2024-01-07T00:17:44;101542.94;;;25.50;46.47
250;BME280;109;19.806;-70.704;2024-01-07T00:20:11;101554.28;;;25.42;46.59
250;BME280;109;19.806;-70.704;2024-01-07T00:22:37;101552.88;;;25.49;46.34
250;BME280;109;19.806;-70.704;2024-01-07T00:25:04;101556.50;;;25.36;47.03
250;BME280;109;19.806;-70.704;2024-01-07T00:27:30;101559.88;;;25.39;46.76
250;BME280;109;19.806;-70.704;2024-01-07T00:29:57;101558.28;;;25.49;46.04
250;BME280;109;19.806;-70.704;2024-01-07T00:32:23;101564.03;;;25.45;46.63
250;BME280;109;19.806;-70.704;2024-01-07T00:34:50;101562.47;;;25.41;46.20
250;BME280;109;19.806;-70.704;2024-01-07T00:37:22;101563.00;;;25.33;46.62
250;BME280;109;19.806;-70.704;2024-01-07T00:40:04;101559.56;;;25.44;46.51
250;BME280;109;19.806;-70.704;2024-01-07T00:42:31;101567.69;;;25.44;46.45
250;BME280;109;19.806;-70.704;2024-01-07T00:45:04;101560.59;;;25.29;46.45
250;BME280;109;19.806;-70.704;2024-01-07T00:47:30;101567.44;;;25.34;46.25
250;BME280;109;19.806;-70.704;2024-01-07T00:50:03;101555.66;;;25.35;46.44
250;BME280;109;19.806;-70.704;2024-01-07T00:52:30;101566.81;;;25.43;46.43
250;BME280;109;19.806;-70.704;2024-01-07T00:55:05;101572.94;;;25.33;46.89
250;BME280;109;19.806;-70.704;2024-01-07T00:57:32;101564.97;;;25.44;46.21
250;BME280;109;19.806;-70.704;2024-01-07T01:00:06;101573.13;;;25.30;47.00
250;BME280;109;19.806;-70.704;2024-01-07T01:02:33;101574.88;;;25.31;46.93
250;BME280;109;19.806;-70.704;2024-01-07T01:05:08;101572.56;;;25.25;46.82
250;BME280;109;19.806;-70.704;2024-01-07T01:07:35;101573.28;;;24.86;47.66
250;BME280;109;19.806;-70.704;2024-01-07T01:10:08;101577.66;;;25.29;46.79
250;BME280;109;19.806;-70.704;2024-01-07T01:12:34;101580.47;;;25.28;47.34
250;BME280;109;19.806;-70.704;2024-01-07T01:15:08;101568.25;;;25.08;47.01
250;BME280;109;19.806;-70.704;2024-01-07T01:17:34;101582.03;;;25.03;47.27
250;BME280;109;19.806;-70.704;2024-01-07T01:20:08;101581.03;;;25.19;47.02
250;BME280;109;19.806;-70.704;2024-01-07T01:22:34;101581.63;;;25.09;47.54
250;BME280;109;19.806;-70.704;2024-01-07T01:25:07;101584.63;;;25.05;47.48
250;BME280;109;19.806;-70.704;2024-01-07T01:27:34;101592.91;;;25.16;46.93
250;BME280;109;19.806;-70.704;2024-01-07T01:30:08;101588.94;;;25.22;46.74
250;BME280;109;19.806;-70.704;2024-01-07T01:32:34;101587.41;;;25.32;46.97
250;BME280;109;19.806;-70.704;2024-01-07T01:35:17;101589.91;;;25.21;46.92
250;BME280;109;19.806;-70.704;2024-01-07T01:37:50;101597.63;;;25.12;46.93
250;BME280;109;19.806;-70.704;2024-01-07T01:40:17;101597.84;;;25.24;46.80
250;BME280;109;19.806;-70.704;2024-01-07T01:42:51;101607.78;;;25.09;47.20
250;BME280;109;19.806;-70.704;2024-01-07T01:45:17;101605.38;;;25.04;47.19
250;BME280;109;19.806;-70.704;2024-01-07T01:47:51;101596.59;;;25.01;47.27
250;BME280;109;19.806;-70.704;2024-01-07T01:50:18;101594.94;;;25.12;47.11
250;BME280;109;19.806;-70.704;2024-01-07T01:52:52;101592.34;;;24.97;47.38
250;BME280;109;19.806;-70.704;2024-01-07T01:55:19;101587.84;;;24.83;47.63
250;BME280;109;19.806;-70.704;2024-01-07T01:58:00;101585.03;;;24.99;47.04
250;BME280;109;19.806;-70.704;2024-01-07T02:00:36;101585.25;;;24.96;47.42
250;BME280;109;19.806;-70.704;2024-01-07T02:03:03;101593.78;;;25.02;47.44
250;BME280;109;19.806;-70.704;2024-01-07T02:05:36;101594.16;;;25.10;47.05
250;BME280;109;19.806;-70.704;2024-01-07T02:08:04;101590.91;;;25.05;47.16
250;BME280;109;19.806;-70.704;2024-01-07T02:10:37;101585.69;;;25.02;47.43
250;BME280;109;19.806;-70.704;2024-01-07T02:13:04;101590.34;;;24.86;47.46
250;BME280;109;19.806;-70.704;2024-01-07T02:15:37;101591.88;;;24.90;47.05
250;BME280;109;19.806;-70.704;2024-01-07T02:18:04;101593.97;;;24.99;47.21
250;BME280;109;19.806;-70.704;2024-01-07T02:20:38;101591.78;;;24.77;47.41
250;BME280;109;19.806;-70.704;2024-01-07T02:23:04;101593.41;;;24.66;47.43
250;BME280;109;19.806;-70.704;2024-01-07T02:25:38;101592.66;;;24.78;47.75
250;BME280;109;19.806;-70.704;2024-01-07T02:28:05;101589.97;;;24.78;47.66
250;BME280;109;19.806;-70.704;2024-01-07T02:30:46;101590.84;;;24.78;47.79
250;BME280;109;19.806;-70.704;2024-01-07T02:33:18;101585.53;;;24.77;47.44
250;BME280;109;19.806;-70.704;2024-01-07T02:35:45;101594.41;;;24.79;47.35
250;BME280;109;19.806;-70.704;2024-01-07T02:38:24;101590.53;;;24.69;47.15
250;BME280;109;19.806;-70.704;2024-01-07T02:40:51;101594.97;;;24.70;47.74
250;BME280;109;19.806;-70.704;2024-01-07T02:43:23;101590.16;;;24.89;46.83
250;BME280;109;19.806;-70.704;2024-01-07T02:45:50;101589.00;;;24.79;47.12
250;BME280;109;19.806;-70.704;2024-01-07T02:48:22;101590.53;;;24.69;47.42
250;BME280;109;19.806;-70.704;2024-01-07T02:50:49;101594.41;;;24.79;47.39
250;BME280;109;19.806;-70.704;2024-01-07T02:53:21;101584.75;;;24.75;47.30
250;BME280;109;19.806;-70.704;2024-01-07T02:55:48;101589.56;;;24.70;47.48
250;BME280;109;19.806;-70.704;2024-01-07T02:58:20;101580.59;;;24.69;47.36
250;BME280;109;19.806;-70.704;2024-01-07T03:00:47;101579.31;;;24.61;47.25
250;BME280;109;19.806;-70.704;2024-01-07T03:03:19;101588.88;;;24.66;47.19
250;BME280;109;19.806;-70.704;2024-01-07T03:05:46;101581.97;;;24.76;47.12
250;BME280;109;19.806;-70.704;2024-01-07T03:08:18;101584.28;;;24.83;47.23
250;BME280;109;19.806;-70.704;2024-01-07T03:10:45;101585.34;;;24.94;46.68
250;BME280;109;19.806;-70.704;2024-01-07T03:13:17;101583.94;;;24.73;47.23
250;BME280;109;19.806;-70.704;2024-01-07T03:15:44;101583.41;;;24.82;47.12
250;BME280;109;19.806;-70.704;2024-01-07T03:18:16;101581.28;;;24.87;46.98
250;BME280;109;19.806;-70.704;2024-01-07T03:20:43;101583.94;;;24.73;47.18
250;BME280;109;19.806;-70.704;2024-01-07T03:23:15;101575.06;;;24.71;47.04
250;BME280;109;19.806;-70.704;2024-01-07T03:25:42;101564.19;;;24.58;47.04
250;BME280;109;19.806;-70.704;2024-01-07T03:28:22;101572.19;;;24.60;47.10
250;BME280;109;19.806;-70.704;2024-01-07T03:30:55;101576.53;;;24.62;47.09
250;BME280;109;19.806;-70.704;2024-01-07T03:33:22;101568.94;;;24.69;47.16
250;BME280;109;19.806;-70.704;2024-01-07T03:35:54;101574.44;;;24.67;46.83
250;BME280;109;19.806;-70.704;2024-01-07T03:38:35;101570.09;;;24.65;46.68
250;BME280;109;19.806;-70.704;2024-01-07T03:41:02;101567.50;;;24.77;46.81
250;BME280;109;19.806;-70.704;2024-01-07T03:43:35;101575.06;;;24.71;46.84
250;BME280;109;19.806;-70.704;2024-01-07T03:46:02;101574.09;;;24.58;46.96
250;BME280;109;19.806;-70.704;2024-01-07T03:48:34;101559.28;;;24.65;47.05
250;BME280;109;19.806;-70.704;2024-01-07T03:51:01;101554.56;;;24.68;46.88
250;BME280;109;19.806;-70.704;2024-01-07T03:53:33;101557.53;;;24.64;46.76
250;BME280;109;19.806;-70.704;2024-01-07T03:56:00;101558.88;;;24.71;46.78
250;BME280;109;19.806;-70.704;2024-01-07T03:58:33;101556.22;;;24.85;46.88
250;BME280;109;19.806;-70.704;2024-01-07T04:01:01;101557.03;;;24.71;46.91
250;BME280;109;19.806;-70.704;2024-01-07T04:03:33;101548.09;;;24.71;46.50
250;BME280;109;19.806;-70.704;2024-01-07T04:06:00;101543.31;;;24.76;46.51
250;BME280;109;19.806;-70.704;2024-01-07T04:08:33;101554.34;;;24.71;46.57
250;BME280;109;19.806;-70.704;2024-01-07T04:11:02;101541.84;;;24.42;47.07
250;BME280;109;19.806;-70.704;2024-01-07T04:13:36;101547.44;;;24.67;46.98
250;BME280;109;19.806;-70.704;2024-01-07T04:16:03;101552.34;;;24.61;46.82
250;BME280;109;19.806;-70.704;2024-01-07T04:18:36;101553.78;;;24.52;47.08
250;BME280;109;19.806;-70.704;2024-01-07T04:21:04;101553.78;;;24.66;46.83
250;BME280;109;19.806;-70.704;2024-01-07T04:23:38;101554.69;;;24.81;46.94
250;BME280;109;19.806;-70.704;2024-01-07T04:26:13;101551.13;;;24.80;46.88
250;BME280;109;19.806;-70.704;2024-01-07T04:28:46;101555.22;;;24.58;46.97
250;BME280;109;19.806;-70.704;2024-01-07T04:31:13;101563.31;;;24.72;46.96
250;BME280;109;19.806;-70.704;2024-01-07T04:33:45;101559.09;;;24.68;46.71
250;BME280;109;19.806;-70.704;2024-01-07T04:36:32;101555.72;;;24.64;46.87
250;BME280;109;19.806;-70.704;2024-01-07T04:39:05;101553.03;;;24.64;47.22
250;BME280;109;19.806;-70.704;2024-01-07T04:41:32;101553.38;;;24.72;46.74
250;BME280;109;19.806;-70.704;2024-01-07T04:44:05;101545.59;;;24.68;46.90
250;BME280;109;19.806;-70.704;2024-01-07T04:46:38;101545.69;;;24.52;47.01
250;BME280;109;19.806;-70.704;2024-01-07T04:49:11;101548.22;;;24.69;46.84
250;BME280;109;19.806;-70.704;2024-01-07T04:51:38;101546.75;;;24.50;47.07
250;BME280;109;19.806;-70.704;2024-01-07T04:54:11;101544.06;;;24.50;46.87
250;BME280;109;19.806;-70.704;2024-01-07T04:56:38;101548.84;;;24.44;47.29
250;BME280;109;19.806;-70.704;2024-01-07T04:59:10;101543.19;;;24.49;47.17
250;BME280;109;19.806;-70.704;2024-01-07T05:01:37;101538.56;;;24.37;47.58
250;BME280;109;19.806;-70.704;2024-01-07T05:04:09;101537.59;;;24.52;47.36
250;BME280;109;19.806;-70.704;2024-01-07T05:06:36;101531.72;;;24.60;47.35
250;BME280;109;19.806;-70.704;2024-01-07T05:09:09;101523.25;;;24.37;47.40
250;BME280;109;19.806;-70.704;2024-01-07T05:11:39;101529.69;;;24.49;47.37
250;BME280;109;19.806;-70.704;2024-01-07T05:14:13;101520.56;;;24.52;47.44
250;BME280;109;19.806;-70.704;2024-01-07T05:16:48;101524.56;;;24.44;47.64
250;BME280;109;19.806;-70.704;2024-01-07T05:19:20;101525.25;;;24.34;47.41
250;BME280;109;19.806;-70.704;2024-01-07T05:21:47;101514.00;;;24.41;47.44
250;BME280;109;19.806;-70.704;2024-01-07T05:24:21;101510.72;;;24.51;47.46
250;BME280;109;19.806;-70.704;2024-01-07T05:26:47;101510.03;;;24.47;47.61
250;BME280;109;19.806;-70.704;2024-01-07T05:29:20;101504.47;;;24.50;47.39
250;BME280;109;19.806;-70.704;2024-01-07T05:31:48;101499.47;;;24.44;47.72
250;BME280;109;19.806;-70.704;2024-01-07T05:34:20;101501.56;;;24.39;47.77
250;BME280;109;19.806;-70.704;2024-01-07T05:37:07;101498.47;;;24.45;47.81
250;BME280;109;19.806;-70.704;2024-01-07T05:39:40;101497.72;;;24.43;47.81
250;BME280;109;19.806;-70.704;2024-01-07T05:42:07;101499.25;;;24.33;47.84
250;BME280;109;19.806;-70.704;2024-01-07T05:44:39;101497.63;;;24.30;47.89
250;BME280;109;19.806;-70.704;2024-01-07T05:47:06;101502.03;;;24.45;47.90
250;BME280;109;19.806;-70.704;2024-01-07T05:49:39;101495.38;;;24.23;48.16
250;BME280;109;19.806;-70.704;2024-01-07T05:52:09;101504.28;;;24.39;47.86
250;BME280;109;19.806;-70.704;2024-01-07T05:54:42;101506.19;;;24.37;47.90
250;BME280;109;19.806;-70.704;2024-01-07T05:57:09;101492.44;;;24.41;47.87
250;BME280;109;19.806;-70.704;2024-01-07T05:59:44;101509.94;;;24.49;47.88
250;BME280;109;19.806;-70.704;2024-01-07T06:02:11;101506.47;;;24.46;47.94
250;BME280;109;19.806;-70.704;2024-01-07T06:04:44;101495.22;;;24.40;48.00
250;BME280;109;19.806;-70.704;2024-01-07T06:07:18;101488.28;;;24.36;48.09
250;BME280;109;19.806;-70.704;2024-01-07T06:09:54;101486.25;;;24.39;48.06
250;BME280;109;19.806;-70.704;2024-01-07T06:12:21;101486.44;;;24.36;48.09
250;BME280;109;19.806;-70.704;2024-01-07T06:14:53;101479.72;;;24.43;47.64
250;BME280;109;19.806;-70.704;2024-01-07T06:17:20;101474.22;;;24.31;48.06
250;BME280;109;19.806;-70.704;2024-01-07T06:19:53;101471.72;;;24.28;47.91
250;BME280;109;19.806;-70.704;2024-01-07T06:22:20;101478.34;;;24.36;48.11
250;BME280;109;19.806;-70.704;2024-01-07T06:24:52;101458.41;;;24.39;48.13
250;BME280;109;19.806;-70.704;2024-01-07T06:27:19;101465.63;;;24.38;48.11
250;BME280;109;19.806;-70.704;2024-01-07T06:29:51;101467.56;;;24.36;47.94
250;BME280;109;19.806;-70.704;2024-01-07T06:32:18;101454.56;;;24.29;48.15
250;BME280;109;19.806;-70.704;2024-01-07T06:34:50;101460.22;;;24.24;48.30
250;BME280;109;19.806;-70.704;2024-01-07T06:37:37;101451.97;;;24.27;48.04
250;BME280;109;19.806;-70.704;2024-01-07T06:40:11;101456.31;;;24.30;48.37
250;BME280;109;19.806;-70.704;2024-01-07T06:42:37;101455.97;;;24.20;48.32
250;BME280;109;19.806;-70.704;2024-01-07T06:45:11;101449.53;;;24.23;48.39
250;BME280;109;19.806;-70.704;2024-01-07T06:47:37;101453.06;;;24.09;48.23
250;BME280;109;19.806;-70.704;2024-01-07T06:50:10;101450.50;;;24.36;48.41
250;BME280;109;19.806;-70.704;2024-01-07T06:52:37;101448.56;;;24.24;48.41
250;BME280;109;19.806;-70.704;2024-01-07T06:55:09;101450.28;;;24.10;48.59
250;BME280;109;19.806;-70.704;2024-01-07T06:57:36;101450.56;;;24.20;48.37
250;BME280;109;19.806;-70.704;2024-01-07T07:00:09;101447.97;;;24.19;48.30
250;BME280;109;19.806;-70.704;2024-01-07T07:02:35;101444.72;;;24.14;48.36
250;BME280;109;19.806;-70.704;2024-01-07T07:05:09;101451.97;;;24.27;48.15
250;BME280;109;19.806;-70.704;2024-01-07T07:07:43;101452.91;;;24.12;48.60
250;BME280;109;19.806;-70.704;2024-01-07T07:10:15;101451.16;;;24.11;48.66
250;BME280;109;19.806;-70.704;2024-01-07T07:12:42;101446.38;;;24.30;48.32
250;BME280;109;19.806;-70.704;2024-01-07T07:15:14;101445.88;;;24.38;47.84
250;BME280;109;19.806;-70.704;2024-01-07T07:17:41;101450.22;;;24.26;47.88
250;BME280;109;19.806;-70.704;2024-01-07T07:20:13;101447.81;;;24.36;47.79
250;BME280;109;19.806;-70.704;2024-01-07T07:22:40;101444.06;;;24.38;48.13
250;BME280;109;19.806;-70.704;2024-01-07T07:25:12;101442.13;;;24.26;48.16
250;BME280;109;19.806;-70.704;2024-01-07T07:27:39;101430.38;;;24.41;47.97
250;BME280;109;19.806;-70.704;2024-01-07T07:30:11;101431.06;;;24.31;48.26
250;BME280;109;19.806;-70.704;2024-01-07T07:32:41;101436.03;;;24.23;48.27
250;BME280;109;19.806;-70.704;2024-01-07T07:35:15;101428.13;;;24.20;48.25
250;BME280;109;19.806;-70.704;2024-01-07T07:38:01;101422.66;;;24.21;48.35
250;BME280;109;19.806;-70.704;2024-01-07T07:40:34;101426.13;;;24.37;47.86
250;BME280;109;19.806;-70.704;2024-01-07T07:43:01;101423.25;;;24.40;48.09
250;BME280;109;19.806;-70.704;2024-01-07T07:45:35;101420.38;;;24.29;48.15
250;BME280;109;19.806;-70.704;2024-01-07T07:48:01;101421.44;;;24.27;47.97
250;BME280;109;19.806;-70.704;2024-01-07T07:50:42;101420.81;;;24.22;47.85
250;BME280;109;19.806;-70.704;2024-01-07T07:53:15;101415.31;;;24.23;47.97
250;BME280;109;19.806;-70.704;2024-01-07T07:55:42;101425.34;;;24.21;47.70
250;BME280;109;19.806;-70.704;2024-01-07T07:58:15;101430.72;;;24.21;47.84
250;BME280;109;19.806;-70.704;2024-01-07T08:00:42;101434.88;;;23.98;48.09
250;BME280;109;19.806;-70.704;2024-01-07T08:03:15;101427.84;;;24.10;48.21
250;BME280;109;19.806;-70.704;2024-01-07T08:05:42;101432.56;;;24.06;47.78
250;BME280;109;19.806;-70.704;2024-01-07T08:08:14;101434.50;;;24.04;48.03
250;BME280;109;19.806;-70.704;2024-01-07T08:10:41;101434.19;;;23.95;47.75
250;BME280;109;19.806;-70.704;2024-01-07T08:13:13;101437.63;;;24.27;47.27
250;BME280;109;19.806;-70.704;2024-01-07T08:15:40;101443.66;;;24.16;47.31
250;BME280;109;19.806;-70.704;2024-01-07T08:18:12;101439.78;;;24.20;47.37
250;BME280;109;19.806;-70.704;2024-01-07T08:20:39;101434.78;;;24.14;47.45
250;BME280;109;19.806;-70.704;2024-01-07T08:23:13;101440.75;;;24.19;47.28
250;BME280;109;19.806;-70.704;2024-01-07T08:25:39;101439.44;;;24.26;47.37
250;BME280;109;19.806;-70.704;2024-01-07T08:28:12;101441.47;;;24.37;47.12
250;BME280;109;19.806;-70.704;2024-01-07T08:30:39;101447.59;;;24.10;47.55
250;BME280;109;19.806;-70.704;2024-01-07T08:33:11;101448.66;;;24.22;47.30
250;BME280;109;19.806;-70.704;2024-01-07T08:35:38;101445.94;;;24.22;46.85
250;BME280;109;19.806;-70.704;2024-01-07T08:38:11;101446.91;;;24.21;47.28
250;BME280;109;19.806;-70.704;2024-01-07T08:40:51;101451.94;;;24.13;47.32
250;BME280;109;19.806;-70.704;2024-01-07T08:43:25;101449.84;;;24.18;47.11
250;BME280;109;19.806;-70.704;2024-01-07T08:45:59;101452.53;;;24.18;46.86
250;BME280;109;19.806;-70.704;2024-01-07T08:48:25;101459.84;;;24.16;46.93
250;BME280;109;19.806;-70.704;2024-01-07T08:50:57;101457.19;;;24.30;46.81
250;BME280;109;19.806;-70.704;2024-01-07T08:53:24;101464.59;;;24.27;47.01
250;BME280;109;19.806;-70.704;2024-01-07T08:55:56;101466.00;;;24.18;47.09
250;BME280;109;19.806;-70.704;2024-01-07T08:58:23;101471.09;;;24.23;46.91
250;BME280;109;19.806;-70.704;2024-01-07T09:00:56;101468.31;;;24.24;46.78
250;BME280;109;19.806;-70.704;2024-01-07T09:03:30;101465.28;;;24.30;46.81
250;BME280;109;19.806;-70.704;2024-01-07T09:06:03;101477.13;;;24.28;46.83
250;BME280;109;19.806;-70.704;2024-01-07T09:08:29;101475.94;;;24.18;47.18
250;BME280;109;19.806;-70.704;2024-01-07T09:11:06;101487.16;;;24.10;46.81
250;BME280;109;19.806;-70.704;2024-01-07T09:13:39;101484.88;;;24.18;46.99
250;BME280;109;19.806;-70.704;2024-01-07T09:16:06;101483.34;;;24.14;46.91
250;BME280;109;19.806;-70.704;2024-01-07T09:18:41;101473.78;;;24.08;47.12
250;BME280;109;19.806;-70.704;2024-01-07T09:21:10;101478.69;;;24.02;46.88
250;BME280;109;19.806;-70.704;2024-01-07T09:23:44;101480.22;;;24.06;47.01
250;BME280;109;19.806;-70.704;2024-01-07T09:26:10;101492.34;;;23.85;47.21
250;BME280;109;19.806;-70.704;2024-01-07T09:28:44;101488.84;;;23.83;46.94
250;BME280;109;19.806;-70.704;2024-01-07T09:31:10;101490.03;;;23.93;46.87
250;BME280;109;19.806;-70.704;2024-01-07T09:33:44;101488.78;;;23.98;47.07
250;BME280;109;19.806;-70.704;2024-01-07T09:36:10;101488.50;;;23.89;46.98
250;BME280;109;19.806;-70.704;2024-01-07T09:38:43;101491.97;;;23.91;47.03
250;BME280;109;19.806;-70.704;2024-01-07T09:41:23;101492.06;;;23.89;47.19
250;BME280;109;19.806;-70.704;2024-01-07T09:43:58;101491.72;;;23.80;47.04
250;BME280;109;19.806;-70.704;2024-01-07T09:46:32;101488.44;;;23.74;47.29
250;BME280;109;19.806;-70.704;2024-01-07T09:49:01;101493.13;;;23.87;47.39
250;BME280;109;19.806;-70.704;2024-01-07T09:51:35;101491.72;;;23.80;47.18
250;BME280;109;19.806;-70.704;2024-01-07T09:54:03;101488.19;;;23.79;47.19
250;BME280;109;19.806;-70.704;2024-01-07T09:56:39;101488.31;;;23.92;47.02
250;BME280;109;19.806;-70.704;2024-01-07T09:59:16;101490.41;;;23.87;47.01
250;BME280;109;19.806;-70.704;2024-01-07T10:01:44;101495.53;;;23.91;47.13
250;BME280;109;19.806;-70.704;2024-01-07T10:04:18;101496.38;;;23.78;47.20
250;BME280;109;19.806;-70.704;2024-01-07T10:06:45;101494.38;;;23.65;47.03
250;BME280;109;19.806;-70.704;2024-01-07T10:09:18;101499.31;;;23.73;47.02
250;BME280;109;19.806;-70.704;2024-01-07T10:11:47;101503.28;;;23.82;47.31
250;BME280;109;19.806;-70.704;2024-01-07T10:14:21;101497.81;;;23.83;47.15
250;BME280;109;19.806;-70.704;2024-01-07T10:16:48;101499.94;;;23.78;47.17
250;BME280;109;19.806;-70.704;2024-01-07T10:19:24;101497.25;;;23.78;47.13
250;BME280;109;19.806;-70.704;2024-01-07T10:22:16;101500.69;;;23.80;47.10
250;BME280;109;19.806;-70.704;2024-01-07T10:24:51;101506.75;;;23.84;46.96
250;BME280;109;19.806;-70.704;2024-01-07T10:27:25;101495.63;;;23.90;46.47
250;BME280;109;19.806;-70.704;2024-01-07T10:53:05;101532.09;;;23.65;46.86
250;BME280;109;19.806;-70.704;2024-01-07T10:55:36;101534.09;;;23.62;46.77
250;BME280;109;19.806;-70.704;2024-01-07T10:58:05;101534.09;;;23.78;46.46
250;BME280;109;19.806;-70.704;2024-01-07T11:00:32;101534.75;;;23.81;46.54
250;BME280;109;19.806;-70.704;2024-01-07T11:03:27;101539.13;;;23.68;46.53
250;BME280;109;19.806;-70.704;2024-01-07T11:08:59;101543.19;;;23.75;46.44
250;BME280;109;19.806;-70.704;2024-01-07T11:11:35;101548.94;;;23.85;46.62
250;BME280;109;19.806;-70.704;2024-01-07T11:14:03;101556.63;;;23.77;46.57
250;BME280;109;19.806;-70.704;2024-01-07T11:16:45;101553.53;;;23.67;46.62
250;BME280;109;19.806;-70.704;2024-01-07T11:19:14;101558.59;;;23.73;46.50
250;BME280;109;19.806;-70.704;2024-01-07T11:21:41;101560.84;;;23.81;46.40
250;BME280;109;19.806;-70.704;2024-01-07T11:24:08;101565.38;;;23.80;46.55
250;BME280;109;19.806;-70.704;2024-01-07T11:26:35;101575.78;;;23.70;46.35
250;BME280;109;19.806;-70.704;2024-01-07T11:29:01;101582.22;;;23.84;46.71
250;BME280;109;19.806;-70.704;2024-01-07T11:34:06;101585.09;;;23.81;46.65
250;BME280;109;19.806;-70.704;2024-01-07T11:36:36;101594.56;;;23.72;46.68
250;BME280;109;19.806;-70.704;2024-01-07T11:39:03;101596.09;;;23.78;46.74
250;BME280;109;19.806;-70.704;2024-01-07T11:41:35;101602.41;;;23.92;46.53
250;BME280;109;19.806;-70.704;2024-01-07T11:44:02;101607.97;;;23.89;46.50
250;BME280;109;19.806;-70.704;2024-01-07T11:46:30;101614.31;;;23.88;46.43
250;BME280;109;19.806;-70.704;2024-01-07T11:49:00;101615.75;;;23.94;46.42
250;BME280;109;19.806;-70.704;2024-01-07T11:51:31;101621.84;;;23.97;46.59
250;BME280;109;19.806;-70.704;2024-01-07T11:53:59;101615.03;;;24.06;46.60
250;BME280;109;19.806;-70.704;2024-01-07T11:56:26;101624.44;;;23.99;46.24
250;BME280;109;19.806;-70.704;2024-01-07T11:58:53;101622.69;;;24.14;46.45
250;BME280;109;19.806;-70.704;2024-01-07T12:01:19;101632.59;;;24.29;46.09
250;BME280;109;19.806;-70.704;2024-01-07T12:03:46;101632.41;;;24.16;46.04
250;BME280;109;19.806;-70.704;2024-01-07T12:06:13;101639.56;;;24.17;46.27
250;BME280;109;19.806;-70.704;2024-01-07T12:08:41;101644.47;;;24.25;46.13
250;BME280;109;19.806;-70.704;2024-01-07T12:11:08;101640.50;;;24.16;46.14
250;BME280;109;19.806;-70.704;2024-01-07T12:13:36;101649.94;;;24.23;46.23
250;BME280;109;19.806;-70.704;2024-01-07T12:16:04;101647.91;;;24.28;45.92
250;BME280;109;19.806;-70.704;2024-01-07T12:18:31;101647.16;;;24.25;46.13
250;BME280;109;19.806;-70.704;2024-01-07T12:20:58;101663.91;;;24.31;46.12
250;BME280;109;19.806;-70.704;2024-01-07T12:23:26;101661.78;;;24.36;45.88
250;BME280;109;19.806;-70.704;2024-01-07T12:25:53;101664.13;;;24.42;45.82
250;BME280;109;19.806;-70.704;2024-01-07T12:28:20;101662.28;;;24.43;45.89
250;BME280;109;19.806;-70.704;2024-01-07T12:30:49;101662.56;;;24.38;45.55
250;BME280;109;19.806;-70.704;2024-01-07T12:33:17;101658.16;;;24.52;45.45
250;BME280;109;19.806;-70.704;2024-01-07T12:35:46;101663.84;;;24.61;45.52
250;BME280;109;19.806;-70.704;2024-01-07T12:38:13;101667.47;;;24.76;45.13
250;BME280;109;19.806;-70.704;2024-01-07T12:40:39;101675.66;;;24.89;45.29
250;BME280;109;19.806;-70.704;2024-01-07T12:43:06;101681.16;;;25.01;45.40
250;BME280;109;19.806;-70.704;2024-01-07T12:45:35;101676.91;;;25.11;45.18
250;BME280;109;19.806;-70.704;2024-01-07T12:48:02;101679.34;;;25.16;44.53
250;BME280;109;19.806;-70.704;2024-01-07T12:50:29;101680.41;;;25.42;44.56
250;BME280;109;19.806;-70.704;2024-01-07T12:52:59;101683.69;;;25.47;44.34
250;BME280;109;19.806;-70.704;2024-01-07T12:55:26;101688.28;;;25.59;44.25
250;BME280;109;19.806;-70.704;2024-01-07T12:57:53;101695.09;;;25.65;44.17
250;BME280;109;19.806;-70.704;2024-01-07T13:00:20;101686.69;;;25.83;43.98
250;BME280;109;19.806;-70.704;2024-01-07T13:02:47;101690.75;;;26.03;43.85
250;BME280;109;19.806;-70.704;2024-01-07T13:05:14;101698.03;;;26.15;43.67
250;BME280;109;19.806;-70.704;2024-01-07T13:07:41;101696.81;;;26.21;43.79
250;BME280;109;19.806;-70.704;2024-01-07T13:10:08;101705.06;;;26.32;43.61
250;BME280;109;19.806;-70.704;2024-01-07T13:12:36;101708.94;;;26.28;42.96
250;BME280;109;19.806;-70.704;2024-01-07T13:15:03;101703.75;;;26.25;42.98
250;BME280;109;19.806;-70.704;2024-01-07T13:17:30;101713.06;;;26.34;42.84
250;BME280;109;19.806;-70.704;2024-01-07T13:19:59;101708.88;;;26.42;43.31
250;BME280;109;19.806;-70.704;2024-01-07T13:22:26;101713.81;;;26.63;42.86
250;BME280;109;19.806;-70.704;2024-01-07T13:24:52;101714.63;;;26.50;43.28
250;BME280;109;19.806;-70.704;2024-01-07T13:27:20;101718.44;;;26.61;42.82
250;BME280;109;19.806;-70.704;2024-01-07T13:29:49;101722.25;;;26.71;42.47
250;BME280;109;19.806;-70.704;2024-01-07T13:32:16;101718.59;;;26.84;42.08
250;BME280;109;19.806;-70.704;2024-01-07T13:34:45;101727.16;;;26.91;42.12
250;BME280;109;19.806;-70.704;2024-01-07T13:37:11;101721.44;;;27.08;42.16
250;BME280;109;19.806;-70.704;2024-01-07T13:39:38;101719.91;;;27.30;42.53
250;BME280;109;19.806;-70.704;2024-01-07T13:42:04;101715.19;;;27.57;41.95
250;BME280;109;19.806;-70.704;2024-01-07T13:44:32;101721.63;;;27.31;41.45
250;BME280;109;19.806;-70.704;2024-01-07T13:47:00;101720.75;;;26.92;42.01
250;BME280;109;19.806;-70.704;2024-01-07T13:49:31;101726.72;;;26.72;42.72
250;BME280;109;19.806;-70.704;2024-01-07T13:51:58;101728.66;;;26.70;42.71
250;BME280;109;19.806;-70.704;2024-01-07T13:54:24;101727.41;;;26.61;43.96